createdAt,value
2018-03-19T00:01:22.591Z,1.20
2018-03-19T00:03:49.241Z,1.20
2018-03-19T00:06:15.901Z,1.20
2018-03-19T00:08:42.178Z,1.20
2018-03-19T00:11:08.431Z,1.10
2018-03-19T00:13:34.663Z,1.00
2018-03-19T00:16:00.910Z,1.00
2018-03-19T00:18:28.102Z,1.00
2018-03-19T00:20:54.352Z,1.00
2018-03-19T00:23:20.582Z,0.90
2018-03-19T00:25:47.594Z,0.90
2018-03-19T00:28:14.351Z,1.20
2018-03-19T00:30:40.627Z,1.20
2018-03-19T00:33:06.919Z,1.20
2018-03-19T00:35:33.556Z,1.20
2018-03-19T00:38:00.197Z,1.20
2018-03-19T00:40:26.877Z,1.20
2018-03-19T00:42:53.164Z,1.20
2018-03-19T00:45:19.393Z,1.20
2018-03-19T00:47:45.683Z,1.20
2018-03-19T00:50:11.939Z,1.20
2018-03-19T00:52:38.196Z,1.20
2018-03-19T00:55:04.501Z,1.30
2018-03-19T00:57:30.823Z,1.30
2018-03-19T00:59:57.104Z,1.30
2018-03-19T01:02:23.334Z,1.40
2018-03-19T01:04:49.624Z,1.40
2018-03-19T01:07:15.932Z,1.30
2018-03-19T01:09:42.589Z,1.20
2018-03-19T01:12:08.847Z,1.20
2018-03-19T01:14:35.094Z,1.20
2018-03-19T01:17:01.321Z,1.20
2018-03-19T01:19:27.612Z,1.20
2018-03-19T01:21:54.258Z,1.10
2018-03-19T01:24:21.740Z,1.10
2018-03-19T01:26:49.515Z,1.10
2018-03-19T01:29:15.755Z,1.20
2018-03-19T01:31:41.987Z,1.10
2018-03-19T01:34:08.282Z,1.10
2018-03-19T01:36:34.490Z,1.20
2018-03-19T01:39:00.719Z,1.20
2018-03-19T01:41:26.979Z,1.20
2018-03-19T01:43:53.628Z,1.00
2018-03-19T01:46:19.908Z,1.00
2018-03-19T01:48:46.140Z,1.10
2018-03-19T01:51:12.429Z,1.20
2018-03-19T01:53:38.688Z,1.00
2018-03-19T01:56:05.335Z,1.10
2018-03-19T01:58:31.568Z,1.10
2018-03-19T02:00:58.167Z,1.20
2018-03-19T02:03:24.447Z,1.20
2018-03-19T02:05:50.712Z,1.30
2018-03-19T02:08:16.970Z,1.30
2018-03-19T02:10:44.268Z,1.30
2018-03-19T02:13:10.887Z,0.90
2018-03-19T02:15:37.160Z,0.90
2018-03-19T02:18:03.438Z,0.80
2018-03-19T02:20:29.722Z,0.90
2018-03-19T02:22:55.960Z,0.90
2018-03-19T02:25:22.239Z,1.00
2018-03-19T02:27:48.492Z,1.00
2018-03-19T02:30:14.801Z,1.00
2018-03-19T02:32:41.099Z,1.10
2018-03-19T02:35:07.701Z,1.00
2018-03-19T02:37:33.923Z,1.00
2018-03-19T02:40:00.216Z,0.90
2018-03-19T02:42:26.819Z,0.80
2018-03-19T02:44:53.122Z,0.80
2018-03-19T02:47:19.396Z,0.80
2018-03-19T02:49:45.620Z,1.00
2018-03-19T02:52:11.866Z,1.20
2018-03-19T02:54:38.125Z,1.20
2018-03-19T02:57:04.718Z,0.90
2018-03-19T02:59:31.008Z,1.00
2018-03-19T03:01:58.368Z,1.00
2018-03-19T03:04:24.639Z,1.00
2018-03-19T03:06:50.896Z,1.20
2018-03-19T03:09:17.140Z,1.20
2018-03-19T03:11:43.500Z,1.20
2018-03-19T03:14:10.134Z,1.00
2018-03-19T03:16:36.426Z,1.00
2018-03-19T03:19:03.272Z,0.90
2018-03-19T03:21:29.546Z,1.00
2018-03-19T03:23:55.798Z,0.90
2018-03-19T03:26:22.445Z,1.00
2018-03-19T03:28:49.086Z,0.80
2018-03-19T03:31:15.706Z,0.90
2018-03-19T03:33:41.978Z,0.80
2018-03-19T03:36:08.607Z,0.90
2018-03-19T03:38:35.257Z,0.80
2018-03-19T03:41:01.879Z,0.90
2018-03-19T03:43:28.098Z,0.90
2018-03-19T03:45:54.395Z,1.00
2018-03-19T03:48:20.661Z,1.00
2018-03-19T03:50:46.909Z,0.80
2018-03-19T03:53:14.173Z,0.70
2018-03-19T03:55:40.406Z,0.70
2018-03-19T03:58:06.706Z,0.70
2018-03-19T04:00:32.972Z,0.70
2018-03-19T04:02:59.208Z,0.80
2018-03-19T04:05:26.010Z,1.00
2018-03-19T04:07:52.292Z,1.00
2018-03-19T04:10:18.569Z,0.80
2018-03-19T04:12:44.822Z,0.90
2018-03-19T04:15:11.109Z,0.90
2018-03-19T04:17:37.366Z,0.90
2018-03-19T04:20:03.989Z,0.70
2018-03-19T04:22:30.247Z,0.70
2018-03-19T04:24:56.513Z,0.70
2018-03-19T04:27:22.792Z,0.70
2018-03-19T04:29:49.484Z,0.80
2018-03-19T04:32:15.787Z,0.80
2018-03-19T04:34:42.430Z,0.80
2018-03-19T04:37:09.102Z,0.80
2018-03-19T04:39:35.376Z,0.80
2018-03-19T04:42:01.658Z,0.80
2018-03-19T04:44:27.936Z,0.90
2018-03-19T04:46:54.190Z,0.80
2018-03-19T04:49:20.493Z,0.50
2018-03-19T04:51:46.755Z,0.60
2018-03-19T04:54:14.011Z,0.60
2018-03-19T04:56:40.254Z,0.50
2018-03-19T04:59:06.574Z,0.60
2018-03-19T05:01:32.818Z,0.70
2018-03-19T05:03:59.097Z,0.60
2018-03-19T05:06:25.345Z,0.70
2018-03-19T05:08:51.605Z,0.70
2018-03-19T05:11:17.824Z,0.80
2018-03-19T05:13:44.984Z,0.60
2018-03-19T05:16:11.820Z,0.80
2018-03-19T05:18:38.057Z,0.80
2018-03-19T05:21:04.341Z,0.80
2018-03-19T05:23:30.589Z,0.80
2018-03-19T05:25:57.212Z,0.70
2018-03-19T05:28:23.479Z,0.80
2018-03-19T05:30:50.580Z,0.80
2018-03-19T05:33:16.828Z,0.80
2018-03-19T05:35:43.101Z,0.80
2018-03-19T05:38:10.023Z,0.70
2018-03-19T05:40:36.254Z,0.60
2018-03-19T05:43:02.511Z,0.50
2018-03-19T05:45:29.162Z,0.50
2018-03-19T05:47:55.394Z,0.50
2018-03-19T05:50:22.355Z,0.80
2018-03-19T05:52:48.963Z,0.90
2018-03-19T05:55:15.898Z,0.90
2018-03-19T05:57:42.219Z,1.00
2018-03-19T06:00:08.523Z,0.90
2018-03-19T06:02:34.795Z,0.80
2018-03-19T06:05:01.081Z,0.80
2018-03-19T06:07:27.688Z,0.80
2018-03-19T06:09:53.977Z,0.80
2018-03-19T06:12:20.325Z,0.70
2018-03-19T06:14:46.612Z,0.70
2018-03-19T06:17:12.938Z,0.70
2018-03-19T06:19:39.249Z,0.70
2018-03-19T06:22:05.516Z,0.70
2018-03-19T06:24:32.664Z,0.90
2018-03-19T06:26:58.932Z,0.80
2018-03-19T06:29:25.600Z,0.50
2018-03-19T06:31:52.224Z,0.50
2018-03-19T06:34:18.906Z,0.50
2018-03-19T06:36:45.771Z,0.50
2018-03-19T06:39:12.108Z,0.60
2018-03-19T06:41:38.382Z,0.70
2018-03-19T06:44:05.015Z,0.80
2018-03-19T06:46:31.575Z,0.80
2018-03-19T06:48:58.887Z,0.80
2018-03-19T06:51:25.181Z,0.90
2018-03-19T06:53:51.493Z,0.90
2018-03-19T06:56:18.185Z,0.80
2018-03-19T06:58:45.230Z,0.80
2018-03-19T07:01:11.520Z,0.90
2018-03-19T07:03:37.824Z,1.00
2018-03-19T07:06:04.121Z,1.00
2018-03-19T07:08:30.464Z,1.10
2018-03-19T07:10:56.705Z,1.20
2018-03-19T07:13:22.972Z,1.30
2018-03-19T07:15:49.272Z,1.40
2018-03-19T07:18:15.618Z,1.50
2018-03-19T07:20:41.953Z,1.60
2018-03-19T07:23:08.215Z,1.60
2018-03-19T07:25:34.471Z,1.60
2018-03-19T07:28:00.772Z,1.70
2018-03-19T07:30:27.057Z,1.70
2018-03-19T07:32:53.660Z,1.60
2018-03-19T07:35:20.005Z,1.60
2018-03-19T07:37:46.300Z,1.60
2018-03-19T07:40:12.568Z,1.60
2018-03-19T07:42:38.874Z,1.70
2018-03-19T07:45:05.195Z,1.90
2018-03-19T07:47:31.846Z,2.00
2018-03-19T07:49:58.171Z,1.90
2018-03-19T07:52:24.805Z,1.90
2018-03-19T07:54:51.445Z,1.90
2018-03-19T07:57:18.420Z,2.10
2018-03-19T07:59:44.708Z,2.10
2018-03-19T08:02:11.035Z,2.10
2018-03-19T08:04:37.348Z,2.10
2018-03-19T08:07:03.660Z,2.20
2018-03-19T08:09:29.923Z,2.40
2018-03-19T08:11:56.212Z,2.60
2018-03-19T08:14:23.226Z,2.60
2018-03-19T08:16:49.503Z,2.60
2018-03-19T08:19:16.216Z,2.50
2018-03-19T08:21:42.499Z,2.50
2018-03-19T08:24:08.766Z,2.50
2018-03-19T08:26:35.876Z,2.50
2018-03-19T08:29:02.591Z,2.60
2018-03-19T08:31:28.886Z,2.60
2018-03-19T08:33:55.122Z,2.60
2018-03-19T08:36:21.465Z,2.70
2018-03-19T08:38:47.747Z,2.50
2018-03-19T08:41:15.149Z,2.70
2018-03-19T08:43:41.468Z,2.80
2018-03-19T08:46:08.279Z,2.90
2018-03-19T08:48:34.556Z,2.80
2018-03-19T08:51:01.118Z,2.80
2018-03-19T08:53:27.393Z,2.90
2018-03-19T08:55:53.663Z,2.70
2018-03-19T08:58:20.328Z,2.50
2018-03-19T09:00:46.683Z,2.50
2018-03-19T09:03:12.928Z,2.70
2018-03-19T09:05:39.567Z,2.40
2018-03-19T09:08:05.850Z,2.50
2018-03-19T09:10:32.469Z,2.50
2018-03-19T09:12:58.761Z,2.50
2018-03-19T09:15:25.036Z,2.40
2018-03-19T09:17:51.604Z,2.50
2018-03-19T09:20:18.256Z,2.60
2018-03-19T09:22:44.620Z,2.60
2018-03-19T09:25:10.964Z,2.60
2018-03-19T09:27:37.209Z,2.60
2018-03-19T09:30:03.534Z,2.50
2018-03-19T09:32:30.150Z,2.60
2018-03-19T09:34:56.421Z,2.60
2018-03-19T09:37:22.698Z,2.50
2018-03-19T09:39:49.281Z,2.70
2018-03-19T09:42:16.586Z,2.80
2018-03-19T09:44:42.842Z,2.90
2018-03-19T09:47:09.803Z,3.10
2018-03-19T09:49:36.471Z,3.30
2018-03-19T09:52:02.744Z,3.30
2018-03-19T09:54:29.057Z,3.40
2018-03-19T09:56:55.363Z,3.50
2018-03-19T09:59:21.656Z,3.70
2018-03-19T10:01:47.952Z,3.80
2018-03-19T10:04:16.003Z,4.00
2018-03-19T10:06:42.626Z,4.00
2018-03-19T10:09:08.870Z,4.00
2018-03-19T10:11:35.829Z,4.40
2018-03-19T10:14:02.497Z,4.30
2018-03-19T10:16:28.808Z,4.30
2018-03-19T10:18:55.475Z,4.40
2018-03-19T10:21:21.744Z,4.40
2018-03-19T10:23:48.019Z,4.50
2018-03-19T10:26:14.781Z,4.10
2018-03-19T10:28:41.055Z,4.10
2018-03-19T10:31:08.171Z,4.20
2018-03-19T10:33:34.810Z,4.30
2018-03-19T10:36:01.083Z,4.40
2018-03-19T10:38:27.372Z,4.40
2018-03-19T10:40:54.350Z,4.10
2018-03-19T10:43:20.657Z,4.10
2018-03-19T10:45:47.298Z,4.20
2018-03-19T10:48:13.615Z,4.20
2018-03-19T10:50:40.542Z,4.30
2018-03-19T10:53:06.815Z,4.30
2018-03-19T10:55:33.124Z,4.40
2018-03-19T10:58:00.379Z,4.20
2018-03-19T11:00:26.624Z,4.40
2018-03-19T11:02:53.864Z,4.40
2018-03-19T11:05:26.195Z,4.30
2018-03-19T11:21:08.990Z,4.60
2018-03-19T11:23:35.215Z,4.40
2018-03-19T11:26:01.845Z,4.60
2018-03-19T11:28:28.541Z,4.60
2018-03-19T11:30:55.121Z,4.80
2018-03-19T11:33:21.398Z,4.80
2018-03-19T11:35:47.650Z,4.80
2018-03-19T11:38:13.874Z,4.60
2018-03-19T11:40:40.109Z,4.70
2018-03-19T11:43:06.391Z,4.70
2018-03-19T11:45:32.642Z,4.40
2018-03-19T11:47:58.886Z,4.60
2018-03-19T11:50:25.582Z,4.40
2018-03-19T11:52:54.083Z,4.50
2018-03-19T11:55:20.257Z,4.50
2018-03-19T11:57:46.752Z,4.30
2018-03-19T12:00:12.949Z,4.20
2018-03-19T12:02:39.180Z,4.30
2018-03-19T12:05:06.228Z,4.50
2018-03-19T12:07:32.821Z,4.70
2018-03-19T12:09:59.054Z,4.60
2018-03-19T12:12:25.328Z,4.80
2018-03-19T12:14:51.925Z,4.80
2018-03-19T12:17:18.170Z,4.80
2018-03-19T12:19:44.413Z,5.20
2018-03-19T12:22:11.028Z,5.20
2018-03-19T12:24:37.238Z,5.20
2018-03-19T12:27:03.485Z,5.10
2018-03-19T12:29:29.716Z,5.30
2018-03-19T12:31:55.927Z,5.60
2018-03-19T12:34:22.170Z,5.50
2018-03-19T12:36:48.406Z,5.50
2018-03-19T12:39:14.663Z,5.70
2018-03-19T12:41:41.271Z,5.60
2018-03-19T12:44:07.509Z,5.60
2018-03-19T12:46:34.110Z,5.10
2018-03-19T12:49:00.357Z,5.10
2018-03-19T12:51:30.509Z,5.10
2018-03-19T12:53:57.153Z,5.10
2018-03-19T12:56:23.406Z,5.10
2018-03-19T12:58:49.660Z,5.10
2018-03-19T13:01:16.813Z,5.10
2018-03-19T13:03:43.037Z,4.90
2018-03-19T13:06:09.230Z,4.70
2018-03-19T13:08:35.488Z,4.60
2018-03-19T13:11:01.716Z,4.80
2018-03-19T13:13:27.942Z,4.80
2018-03-19T13:15:54.133Z,5.00
2018-03-19T13:18:20.839Z,5.20
2018-03-19T13:20:47.112Z,5.20
2018-03-19T13:23:13.329Z,5.10
2018-03-19T13:25:39.579Z,5.00
2018-03-19T13:28:05.791Z,4.60
2018-03-19T13:30:32.033Z,4.60
2018-03-19T13:32:58.612Z,4.80
2018-03-19T13:35:24.836Z,4.60
2018-03-19T13:37:51.044Z,4.60
2018-03-19T13:40:17.269Z,4.40
2018-03-19T13:42:43.525Z,4.60
2018-03-19T13:45:10.728Z,4.70
2018-03-19T13:47:37.639Z,4.50
2018-03-19T13:50:03.907Z,4.60
2018-03-19T13:52:30.104Z,4.30
2018-03-19T13:54:56.710Z,4.40
2018-03-19T13:57:22.972Z,4.40
2018-03-19T13:59:49.200Z,4.10
2018-03-19T14:02:15.445Z,4.30
2018-03-19T14:04:41.710Z,4.30
2018-03-19T14:07:07.949Z,4.10
2018-03-19T14:09:34.184Z,3.90
2018-03-19T14:12:00.468Z,3.90
2018-03-19T14:14:26.716Z,4.10
2018-03-19T14:16:52.936Z,4.20
2018-03-19T14:19:19.166Z,4.10
2018-03-19T14:21:45.365Z,4.20
2018-03-19T14:24:11.566Z,4.10
2018-03-19T14:26:37.810Z,4.20
2018-03-19T14:29:04.055Z,4.10
2018-03-19T14:31:30.301Z,4.20
2018-03-19T14:33:56.574Z,4.20
2018-03-19T14:36:23.214Z,4.20
2018-03-19T14:38:49.807Z,4.20
2018-03-19T14:41:17.205Z,4.20
2018-03-19T14:43:43.434Z,4.20
2018-03-19T14:46:09.676Z,4.20
2018-03-19T14:48:35.953Z,4.30
2018-03-19T14:51:02.206Z,4.30
2018-03-19T14:53:28.448Z,4.20
2018-03-19T14:55:55.115Z,4.10
2018-03-19T14:58:21.320Z,4.10
2018-03-19T15:00:47.957Z,4.00
2018-03-19T15:03:14.578Z,4.10
2018-03-19T15:05:40.797Z,4.10
2018-03-19T15:08:07.300Z,4.10
2018-03-19T15:10:33.516Z,4.10
2018-03-19T15:12:59.736Z,4.00
2018-03-19T15:15:25.978Z,3.90
2018-03-19T15:17:52.209Z,3.80
2018-03-19T15:20:18.477Z,4.00
2018-03-19T15:22:45.008Z,3.90
2018-03-19T15:25:11.236Z,3.80
2018-03-19T15:27:37.512Z,3.90
2018-03-19T15:30:03.781Z,3.90
2018-03-19T15:32:30.043Z,3.80
2018-03-19T15:34:56.309Z,3.80
2018-03-19T15:37:22.571Z,3.70
2018-03-19T15:39:48.810Z,3.50
2018-03-19T15:42:15.314Z,3.30
2018-03-19T15:44:41.813Z,3.00
2018-03-19T15:47:08.058Z,3.10
2018-03-19T15:49:34.303Z,3.10
2018-03-19T15:52:00.972Z,3.10
2018-03-19T15:54:27.186Z,3.10
2018-03-19T15:56:53.433Z,3.20
2018-03-19T15:59:19.737Z,3.00
2018-03-19T16:01:46.038Z,3.00
2018-03-19T16:04:12.309Z,2.90
2018-03-19T16:06:38.601Z,2.90
2018-03-19T16:09:04.881Z,3.10
2018-03-19T16:11:32.868Z,3.00
2018-03-19T16:13:59.563Z,2.80
2018-03-19T16:16:25.815Z,2.80
2018-03-19T16:18:52.069Z,2.70
2018-03-19T16:21:18.574Z,2.80
2018-03-19T16:23:44.784Z,2.80
2018-03-19T16:26:11.044Z,2.80
2018-03-19T16:28:37.648Z,2.60
2018-03-19T16:31:03.883Z,2.60
2018-03-19T16:33:30.109Z,2.50
2018-03-19T16:35:56.409Z,2.50
2018-03-19T16:38:23.647Z,2.60
2018-03-19T16:40:49.840Z,2.60
2018-03-19T16:43:16.078Z,2.50
2018-03-19T16:45:42.708Z,2.30
2018-03-19T16:48:09.327Z,2.20
2018-03-19T16:50:35.564Z,2.30
2018-03-19T16:53:01.812Z,2.20
2018-03-19T16:55:28.100Z,2.30
2018-03-19T16:57:54.338Z,2.30
2018-03-19T17:00:20.596Z,2.40
2018-03-19T17:02:46.910Z,2.50
2018-03-19T17:05:13.200Z,2.40
2018-03-19T17:07:39.441Z,2.20
2018-03-19T17:10:05.730Z,2.20
2018-03-19T17:12:32.322Z,2.20
2018-03-19T17:14:58.600Z,2.20
2018-03-19T17:17:25.284Z,2.10
2018-03-19T17:19:51.520Z,2.10
2018-03-19T17:22:18.434Z,1.90
2018-03-19T17:24:45.169Z,1.90
2018-03-19T17:27:11.397Z,2.00
2018-03-19T17:29:37.605Z,2.10
2018-03-19T17:32:04.148Z,2.20
2018-03-19T17:34:30.379Z,2.20
2018-03-19T17:36:56.660Z,2.10
2018-03-19T17:39:22.996Z,2.20
2018-03-19T17:41:49.236Z,2.10
2018-03-19T17:44:15.529Z,2.10
2018-03-19T17:46:41.821Z,2.00
2018-03-19T17:49:08.083Z,2.00
2018-03-19T17:51:34.350Z,1.90
2018-03-19T17:54:00.668Z,2.10
2018-03-19T17:56:26.931Z,2.00
2018-03-19T17:58:53.507Z,2.10
2018-03-19T18:01:20.205Z,2.10
2018-03-19T18:03:46.775Z,1.80
2018-03-19T18:06:13.057Z,1.80
2018-03-19T18:08:39.700Z,2.00
2018-03-19T18:11:06.426Z,2.00
2018-03-19T18:13:32.651Z,2.00
2018-03-19T18:15:58.949Z,2.10
2018-03-19T18:18:25.213Z,2.10
2018-03-19T18:20:51.821Z,1.80
2018-03-19T18:23:18.087Z,1.80
2018-03-19T18:25:44.705Z,1.70
2018-03-19T18:28:10.911Z,1.70
2018-03-19T18:30:37.456Z,1.60
2018-03-19T18:33:03.743Z,1.50
2018-03-19T18:35:29.965Z,1.40
2018-03-19T18:37:56.220Z,1.50
2018-03-19T18:40:23.510Z,1.60
2018-03-19T18:42:49.797Z,1.70
2018-03-19T18:45:16.687Z,1.80
2018-03-19T18:47:42.923Z,2.00
2018-03-19T18:50:09.243Z,2.00
2018-03-19T18:52:35.505Z,1.80
2018-03-19T18:55:01.746Z,1.70
2018-03-19T18:57:28.018Z,1.60
2018-03-19T18:59:54.268Z,1.50
2018-03-19T19:02:20.523Z,1.30
2018-03-19T19:04:46.823Z,1.20
2018-03-19T19:07:13.082Z,1.30
2018-03-19T19:09:39.404Z,1.40
2018-03-19T19:12:05.706Z,1.40
2018-03-19T19:14:31.946Z,1.50
2018-03-19T19:16:58.614Z,1.60
2018-03-19T19:19:24.967Z,1.60
2018-03-19T19:21:51.281Z,1.50
2018-03-19T19:24:17.519Z,1.40
2018-03-19T19:26:43.832Z,1.40
2018-03-19T19:29:10.140Z,1.40
2018-03-19T19:31:36.740Z,1.30
2018-03-19T19:34:03.152Z,1.30
2018-03-19T19:36:29.437Z,1.40
2018-03-19T19:38:56.109Z,1.50
2018-03-19T19:41:22.936Z,1.50
2018-03-19T19:43:49.265Z,1.70
2018-03-19T19:46:15.533Z,1.80
2018-03-19T19:48:41.842Z,1.70
2018-03-19T19:51:08.119Z,1.60
2018-03-19T19:53:34.398Z,1.70
2018-03-19T19:56:00.704Z,1.50
2018-03-19T19:58:26.974Z,1.40
2018-03-19T20:00:53.245Z,1.30
2018-03-19T20:03:19.568Z,1.40
2018-03-19T20:05:46.248Z,1.50
2018-03-19T20:08:12.572Z,1.50
2018-03-19T20:10:38.933Z,1.50
2018-03-19T20:13:05.528Z,1.40
2018-03-19T20:15:31.811Z,1.40
2018-03-19T20:17:58.092Z,1.40
2018-03-19T20:20:24.400Z,1.30
2018-03-19T20:22:51.295Z,1.40
2018-03-19T20:25:17.545Z,1.40
2018-03-19T20:27:43.837Z,1.70
2018-03-19T20:30:10.085Z,1.50
2018-03-19T20:32:36.354Z,1.50
2018-03-19T20:35:03.075Z,1.40
2018-03-19T20:37:29.356Z,1.50
2018-03-19T20:39:56.331Z,1.50
2018-03-19T20:42:22.592Z,1.40
2018-03-19T20:44:48.981Z,1.40
2018-03-19T20:47:15.641Z,1.30
2018-03-19T20:49:42.053Z,1.30
2018-03-19T20:52:08.361Z,1.50
2018-03-19T20:54:34.642Z,1.50
2018-03-19T20:57:01.039Z,1.50
2018-03-19T20:59:28.155Z,1.30
2018-03-19T21:01:54.459Z,1.30
2018-03-19T21:04:20.720Z,1.30
2018-03-19T21:06:46.981Z,1.40
2018-03-19T21:09:13.650Z,1.50
2018-03-19T21:11:40.000Z,1.50
2018-03-19T21:14:06.345Z,1.50
2018-03-19T21:16:32.995Z,1.50
2018-03-19T21:18:59.277Z,1.60
2018-03-19T21:21:25.526Z,1.60
2018-03-19T21:23:51.801Z,1.50
2018-03-19T21:26:18.062Z,1.70
2018-03-19T21:28:44.394Z,1.70
2018-03-19T21:31:10.628Z,1.80
2018-03-19T21:33:36.926Z,1.70
2018-03-19T21:36:03.221Z,1.80
2018-03-19T21:38:29.511Z,1.90
2018-03-19T21:40:55.746Z,1.90
2018-03-19T21:43:22.028Z,1.80
2018-03-19T21:45:48.292Z,1.70
2018-03-19T21:48:14.537Z,1.70
2018-03-19T21:50:41.169Z,1.60
2018-03-19T21:53:07.398Z,1.60
2018-03-19T21:55:33.694Z,1.40
2018-03-19T21:57:59.974Z,1.30
2018-03-19T22:00:26.229Z,1.30
2018-03-19T22:02:52.531Z,1.40
2018-03-19T22:05:18.812Z,1.40
2018-03-19T22:07:45.042Z,1.60
2018-03-19T22:10:11.609Z,1.60
2018-03-19T22:12:37.834Z,1.60
2018-03-19T22:15:04.080Z,1.50
2018-03-19T22:17:30.751Z,1.60
2018-03-19T22:19:56.986Z,1.60
2018-03-19T22:22:23.219Z,1.40
2018-03-19T22:24:49.472Z,1.30
2018-03-19T22:27:15.803Z,1.40
2018-03-19T22:29:42.083Z,1.40
2018-03-19T22:32:08.337Z,1.40
2018-03-19T22:34:34.583Z,1.50
2018-03-19T22:37:00.836Z,1.40
2018-03-19T22:39:27.168Z,1.30
2018-03-19T22:41:53.416Z,1.60
2018-03-19T22:44:19.997Z,1.40
2018-03-19T22:46:46.210Z,1.40
2018-03-19T22:49:12.451Z,1.50
2018-03-19T22:51:38.663Z,1.50
2018-03-19T22:54:05.538Z,1.50
2018-03-19T22:56:32.392Z,1.50
2018-03-19T22:58:58.625Z,1.50
2018-03-19T23:01:24.870Z,1.60
2018-03-19T23:03:51.482Z,1.60
2018-03-19T23:06:17.702Z,1.50
2018-03-19T23:08:43.930Z,1.50
2018-03-19T23:11:10.173Z,1.50
2018-03-19T23:13:36.785Z,1.40
2018-03-19T23:16:03.027Z,1.40
2018-03-19T23:18:29.277Z,1.40
2018-03-19T23:20:55.864Z,1.40
2018-03-19T23:23:22.065Z,1.40
2018-03-19T23:25:48.342Z,1.40
2018-03-19T23:28:14.576Z,1.40
2018-03-19T23:30:40.858Z,1.30
2018-03-19T23:33:07.118Z,1.40
2018-03-19T23:35:33.333Z,1.50
2018-03-19T23:37:59.563Z,1.70
2018-03-19T23:40:25.813Z,1.40
2018-03-19T23:42:52.029Z,1.30
2018-03-19T23:45:18.271Z,1.50
2018-03-19T23:47:44.519Z,1.40
2018-03-19T23:50:10.734Z,1.60
2018-03-19T23:52:36.978Z,1.50
2018-03-19T23:55:03.271Z,1.30
2018-03-19T23:57:29.502Z,1.20
2018-03-19T23:59:55.720Z,1.20
